Time;durP1;ratioP1;P1;durP2;ratioP2;P2;SDS_P1;SDS_P2;PMS_P1;PMS_P2;Temp;Humidity;BMP_temperature;BMP_pressure;BME280_temperature;BME280_humidity;BME280_pressure;Samples;Min_cycle;Max_cycle;Signal;HPM_P1;HPM_P2
2021/12/01 00:01:40;;;;;;;0.00;0.00;;;;;;;7.85;61.30;94820.53;4970303;28;20031;-72
2021/12/01 00:04:06;;;;;;;0.00;0.00;;;;;;;8.36;60.15;94834.66;4971063;28;20041;-72
2021/12/01 00:06:32;;;;;;;0.10;0.10;;;;;;;8.18;60.50;94825.72;4969222;28;20039;-73
2021/12/01 00:08:57;;;;;;;1.77;0.10;;;;;;;7.77;61.59;94806.09;4972979;28;20377;-72
2021/12/01 00:11:23;;;;;;;0.00;0.00;;;;;;;7.52;62.50;94817.16;4970714;28;20031;-72
2021/12/01 00:13:49;;;;;;;0.10;0.00;;;;;;;7.56;63.02;94821.56;4970674;28;20023;-72
2021/12/01 00:16:14;;;;;;;0.05;0.05;;;;;;;7.85;62.73;94817.88;4971003;28;20489;-73
2021/12/01 00:18:40;;;;;;;0.10;0.10;;;;;;;8.19;61.66;94804.25;4970816;28;20034;-72
2021/12/01 00:21:05;;;;;;;0.20;0.10;;;;;;;7.59;63.18;94822.88;4970175;28;20030;-72
2021/12/01 00:23:31;;;;;;;0.10;0.00;;;;;;;7.60;63.68;94821.00;4969588;28;20489;-72
2021/12/01 00:25:56;;;;;;;0.22;0.10;;;;;;;7.63;62.88;94797.38;4970834;28;20030;-73
2021/12/01 00:28:22;;;;;;;0.00;0.00;;;;;;;7.55;63.17;94796.19;4970818;28;20039;-74
2021/12/01 00:30:48;;;;;;;0.00;0.00;;;;;;;7.60;63.77;94799.81;4970471;28;20033;-72
2021/12/01 00:33:17;;;;;;;0.00;0.00;;;;;;;8.02;62.34;94790.81;4970573;28;20481;-71
2021/12/01 00:35:44;;;;;;;1.05;0.10;;;;;;;8.42;61.58;94804.31;4970765;28;20117;-72
2021/12/01 00:38:11;;;;;;;0.00;0.00;;;;;;;8.09;62.13;94799.16;4972282;28;20407;-72
2021/12/01 00:40:36;;;;;;;0.17;0.08;;;;;;;8.20;62.23;94778.53;4970217;28;20037;-73
2021/12/01 00:43:02;;;;;;;0.05;0.00;;;;;;;7.99;62.52;94802.00;4970538;28;20031;-72
2021/12/01 00:45:28;;;;;;;0.00;0.00;;;;;;;8.13;62.46;94797.47;4970615;28;20031;-71
2021/12/01 00:47:55;;;;;;;0.00;0.00;;;;;;;7.61;62.30;94762.47;4970850;28;20448;-73
2021/12/01 00:50:30;;;;;;;0.10;0.10;;;;;;;8.08;61.50;94793.03;4972153;28;20104;-73
2021/12/01 00:52:59;;;;;;;0.22;0.20;;;;;;;8.07;60.94;94777.47;4977070;28;20481;-73
2021/12/01 00:55:25;;;;;;;0.10;0.10;;;;;;;8.02;61.38;94793.44;4973860;28;20023;-71
2021/12/01 00:57:51;;;;;;;0.70;0.35;;;;;;;7.92;61.08;94786.50;4974135;28;20039;-72
2021/12/01 01:00:20;;;;;;;0.17;0.10;;;;;;;7.90;61.27;94764.81;4973714;28;20030;-72
2021/12/01 01:02:46;;;;;;;0.00;0.00;;;;;;;7.79;61.03;94782.78;4974253;28;20019;-72
2021/12/01 01:05:12;;;;;;;0.03;0.00;;;;;;;8.74;58.68;94780.25;4974312;28;20031;-71
2021/12/01 01:07:37;;;;;;;0.10;0.10;;;;;;;8.36;58.75;94768.38;4974780;28;20385;-71
2021/12/01 01:16:22;;;;;;;0.10;0.00;;;;;;;8.94;57.52;94762.31;4979930;28;20550;-73
2021/12/01 01:18:45;;;;;;;0.08;0.08;;;;;;;8.24;59.28;94774.19;4973944;28;20349;-72
2021/12/01 01:21:12;;;;;;;0.00;0.00;;;;;;;8.62;58.54;94774.72;4973444;28;20507;-71
2021/12/01 01:23:39;;;;;;;0.10;0.00;;;;;;;8.44;58.51;94773.00;4975170;28;20745;-73
2021/12/01 01:26:09;;;;;;;0.00;0.00;;;;;;;8.61;58.40;94765.22;4977240;28;20031;-71
2021/12/01 01:28:36;;;;;;;0.15;0.10;;;;;;;8.66;57.82;94754.47;4973561;28;20029;-71
2021/12/01 01:31:02;;;;;;;0.08;0.00;;;;;;;8.63;57.62;94736.50;4973538;28;20099;-74
2021/12/01 01:33:27;;;;;;;0.00;0.00;;;;;;;8.65;57.20;94726.41;4973363;28;20039;-71
2021/12/01 01:35:53;;;;;;;0.00;0.00;;;;;;;8.93;56.07;94718.31;4973695;28;20023;-72
2021/12/01 01:38:19;;;;;;;0.10;0.03;;;;;;;8.34;58.84;94735.03;4976730;28;20035;-72
2021/12/01 01:40:44;;;;;;;0.03;0.03;;;;;;;8.84;57.12;94712.94;4976605;28;20030;-73
2021/12/01 01:43:10;;;;;;;0.85;0.00;;;;;;;8.87;56.84;94730.91;4973349;28;20536;-71
2021/12/01 01:45:36;;;;;;;0.05;0.05;;;;;;;8.44;58.51;94726.06;4973387;28;20053;-73
2021/12/01 01:48:06;;;;;;;0.00;0.00;;;;;;;8.61;57.43;94725.44;4973358;28;20035;-72
2021/12/01 01:50:36;;;;;;;0.00;0.00;;;;;;;8.47;58.11;94714.09;4972795;28;20452;-71
2021/12/01 01:53:17;;;;;;;0.03;0.03;;;;;;;9.18;56.18;94714.25;4972360;28;20035;-72
2021/12/01 01:55:50;;;;;;;0.08;0.08;;;;;;;9.79;54.38;94716.03;4976626;28;20026;-73
2021/12/01 01:58:17;;;;;;;0.00;0.00;;;;;;;9.49;55.18;94714.22;4972841;28;20063;-71
2021/12/01 02:00:51;;;;;;;0.98;0.10;;;;;;;8.94;56.78;94717.22;4971959;28;20101;-71
2021/12/01 02:03:18;;;;;;;0.00;0.00;;;;;;;9.05;56.61;94695.44;4977456;28;20050;-71
2021/12/01 02:05:43;;;;;;;0.00;0.00;;;;;;;9.23;55.97;94722.06;4976154;28;20031;-74
2021/12/01 02:08:20;;;;;;;0.13;0.10;;;;;;;10.08;53.48;94712.00;4972809;28;20472;-71
2021/12/01 02:10:50;;;;;;;0.00;0.00;;;;;;;9.43;54.55;94702.16;4976424;28;20023;-72
2021/12/01 02:13:20;;;;;;;0.00;0.00;;;;;;;9.15;55.99;94691.72;4972720;28;20031;-71
2021/12/01 02:15:47;;;;;;;0.00;0.00;;;;;;;9.11;55.77;94691.59;4972004;28;20019;-71
2021/12/01 02:18:12;;;;;;;0.25;0.00;;;;;;;8.47;57.60;94712.22;4972914;28;20042;-72
2021/12/01 02:20:39;;;;;;;0.00;0.00;;;;;;;8.85;56.30;94685.34;4972882;28;20023;-73
2021/12/01 02:23:04;;;;;;;0.00;0.00;;;;;;;8.72;56.56;94665.00;4972336;28;20030;-73
2021/12/01 02:25:30;;;;;;;0.03;0.00;;;;;;;9.57;54.53;94666.47;4976366;28;20473;-73
2021/12/01 02:27:55;;;;;;;0.00;0.00;;;;;;;9.12;55.94;94652.56;4971335;28;20460;-72
2021/12/01 02:30:23;;;;;;;0.00;0.00;;;;;;;9.35;54.76;94666.53;4972636;28;20031;-71
2021/12/01 02:32:50;;;;;;;0.00;0.00;;;;;;;9.22;55.61;94662.91;4972606;28;20488;-72
2021/12/01 02:35:15;;;;;;;0.00;0.00;;;;;;;8.88;56.32;94674.13;4971614;28;20037;-72
2021/12/01 02:37:40;;;;;;;0.10;0.10;;;;;;;9.21;55.27;94668.50;4971752;28;20043;-72
2021/12/01 02:40:07;;;;;;;0.38;0.10;;;;;;;9.00;55.59;94633.75;4975268;28;20019;-71
2021/12/01 02:42:32;;;;;;;0.00;0.00;;;;;;;9.33;54.48;94656.22;4971769;28;20496;-71
2021/12/01 02:44:58;;;;;;;0.00;0.00;;;;;;;8.91;55.80;94644.34;4970781;28;20031;-72
2021/12/01 02:47:25;;;;;;;0.13;0.00;;;;;;;9.31;54.69;94633.72;4971953;28;20034;-72
2021/12/01 02:49:54;;;;;;;0.00;0.00;;;;;;;8.90;56.41;94634.03;4971840;28;20366;-71
2021/12/01 02:52:20;;;;;;;0.00;0.00;;;;;;;9.00;56.11;94644.38;4971083;28;20209;-73
2021/12/01 02:54:45;;;;;;;0.00;0.00;;;;;;;9.28;55.44;94619.22;4975300;28;20602;-71
2021/12/01 02:57:11;;;;;;;0.00;0.00;;;;;;;8.88;55.83;94633.56;4971609;28;20466;-72
2021/12/01 02:59:38;;;;;;;0.00;0.00;;;;;;;9.69;54.00;94622.59;4971487;28;20133;-72
2021/12/01 03:02:04;;;;;;;0.00;0.00;;;;;;;9.09;55.45;94630.06;4970188;28;20037;-71
2021/12/01 03:04:30;;;;;;;0.00;0.00;;;;;;;9.71;53.94;94610.53;4986476;28;20030;-71
2021/12/01 03:06:56;;;;;;;0.15;0.00;;;;;;;8.46;56.75;94614.47;4971730;28;20477;-71
2021/12/01 03:09:23;;;;;;;0.00;0.00;;;;;;;9.52;53.94;94620.66;4969357;28;20165;-71
2021/12/01 03:11:49;;;;;;;0.00;0.00;;;;;;;9.70;54.67;94621.50;4971238;28;20062;-71
2021/12/01 03:14:17;;;;;;;0.00;0.00;;;;;;;9.82;52.84;94619.78;4986061;28;20026;-71
2021/12/01 03:16:44;;;;;;;0.08;0.03;;;;;;;9.92;52.89;94601.97;4970304;28;20107;-71
2021/12/01 03:19:09;;;;;;;0.05;0.00;;;;;;;9.78;53.48;94608.22;4970911;28;20026;-71
2021/12/01 03:21:36;;;;;;;0.00;0.00;;;;;;;9.62;54.71;94615.06;4971192;28;20503;-71
2021/12/01 03:24:03;;;;;;;0.00;0.00;;;;;;;9.54;54.40;94618.50;4974640;28;20026;-71
2021/12/01 03:26:29;;;;;;;0.30;0.00;;;;;;;9.38;54.94;94587.06;4969895;28;20165;-71
2021/12/01 03:28:55;;;;;;;0.00;0.00;;;;;;;9.67;54.47;94588.34;4971228;28;20041;-72
2021/12/01 03:31:20;;;;;;;0.00;0.00;;;;;;;9.73;53.50;94581.03;4969430;28;20462;-71
2021/12/01 03:33:46;;;;;;;0.00;0.00;;;;;;;10.06;53.26;94608.69;4971132;28;20105;-71
2021/12/01 03:36:11;;;;;;;0.10;0.08;;;;;;;10.29;53.05;94595.28;4969827;28;20023;-71
2021/12/01 03:38:37;;;;;;;0.88;0.10;;;;;;;9.64;54.69;94602.28;4971035;28;20444;-71
2021/12/01 03:41:02;;;;;;;0.15;0.00;;;;;;;10.53;52.02;94597.41;4974598;28;20055;-72
2021/12/01 03:43:27;;;;;;;0.10;0.10;;;;;;;10.21;52.98;94580.88;4971095;28;20029;-72
2021/12/01 03:45:53;;;;;;;0.32;0.10;;;;;;;10.11;53.20;94591.81;4971351;28;20469;-71
2021/12/01 03:48:20;;;;;;;0.10;0.10;;;;;;;10.07;53.76;94574.94;4970644;28;20038;-70
2021/12/01 03:50:49;;;;;;;0.13;0.10;;;;;;;10.15;52.84;94571.50;4969622;28;20059;-71
2021/12/01 03:53:16;;;;;;;0.10;0.10;;;;;;;10.88;51.65;94571.50;4970442;28;20027;-71
2021/12/01 03:55:42;;;;;;;0.10;0.10;;;;;;;10.44;52.35;94562.88;4974485;28;20106;-71
2021/12/01 03:58:07;;;;;;;0.15;0.10;;;;;;;11.00;51.44;94563.59;4969416;28;20037;-69
2021/12/01 04:00:32;;;;;;;0.10;0.10;;;;;;;10.25;52.44;94568.53;4970518;28;20662;-70
2021/12/01 04:02:58;;;;;;;0.22;0.22;;;;;;;10.95;50.67;94563.78;4970463;28;20039;-69
2021/12/01 04:05:23;;;;;;;0.00;0.00;;;;;;;9.02;55.38;94566.06;4970771;28;20029;-70
2021/12/01 04:07:49;;;;;;;0.13;0.03;;;;;;;9.11;55.90;94566.09;4970553;28;20218;-69
2021/12/01 04:10:16;;;;;;;0.57;0.05;;;;;;;10.02;53.72;94551.19;4974138;28;20022;-70
2021/12/01 04:12:42;;;;;;;1.17;0.10;;;;;;;9.79;54.60;94537.28;4974242;28;20073;-70
2021/12/01 04:15:09;;;;;;;0.08;0.08;;;;;;;9.65;54.03;94540.09;4970956;28;20023;-70
2021/12/01 04:17:35;;;;;;;0.28;0.10;;;;;;;10.62;51.98;94521.84;4970697;28;20034;-70
2021/12/01 04:20:00;;;;;;;0.10;0.10;;;;;;;9.53;54.95;94534.63;4970816;28;20058;-70
2021/12/01 04:22:26;;;;;;;0.30;0.22;;;;;;;9.52;54.80;94544.47;4970046;28;20624;-70
2021/12/01 04:24:51;;;;;;;0.10;0.10;;;;;;;9.51;54.91;94532.28;4979642;28;20065;-70
2021/12/01 04:27:17;;;;;;;0.43;0.10;;;;;;;9.99;53.44;94523.38;4978499;28;20030;-69
2021/12/01 04:29:43;;;;;;;0.10;0.10;;;;;;;9.62;54.18;94527.44;4974266;28;20074;-69
2021/12/01 04:32:08;;;;;;;0.65;0.10;;;;;;;9.41;54.45;94523.84;4974610;28;20109;-70
2021/12/01 04:34:38;;;;;;;0.10;0.10;;;;;;;10.52;51.58;94500.91;4974575;28;20023;-69
2021/12/01 04:37:04;;;;;;;0.10;0.10;;;;;;;9.54;54.79;94504.34;4974585;28;20097;-69
2021/12/01 04:39:29;;;;;;;0.10;0.10;;;;;;;8.66;57.24;94513.22;4977346;28;20485;-70
2021/12/01 04:41:58;;;;;;;0.17;0.10;;;;;;;9.55;55.39;94505.88;4976592;28;20080;-69
2021/12/01 04:44:27;;;;;;;0.00;0.00;;;;;;;9.38;55.76;94504.78;4965128;28;20045;-70
2021/12/01 04:46:56;;;;;;;0.10;0.10;;;;;;;9.74;54.71;94498.41;4973149;28;20392;-69
2021/12/01 04:49:23;;;;;;;0.13;0.10;;;;;;;9.97;53.83;94500.84;4973903;28;20023;-70
2021/12/01 04:51:51;;;;;;;0.15;0.15;;;;;;;9.16;55.85;94488.97;4973875;28;20046;-71
2021/12/01 04:54:17;;;;;;;0.30;0.10;;;;;;;9.47;55.55;94491.53;4977365;28;20018;-69
2021/12/01 04:56:45;;;;;;;0.17;0.15;;;;;;;9.53;54.63;94492.16;4992601;28;20026;-70
2021/12/01 04:59:10;;;;;;;0.10;0.10;;;;;;;9.54;55.25;94480.44;4972291;28;20035;-69
2021/12/01 05:01:36;;;;;;;0.65;0.43;;;;;;;9.54;55.00;94467.94;4973708;28;20023;-70
2021/12/01 05:04:03;;;;;;;0.20;0.10;;;;;;;9.64;54.61;94485.44;4973838;28;20034;-70
2021/12/01 05:06:29;;;;;;;0.13;0.13;;;;;;;9.37;55.22;94460.78;4974808;28;20026;-70
2021/12/01 05:08:54;;;;;;;0.30;0.10;;;;;;;8.85;57.18;94475.81;4976943;28;20026;-71
2021/12/01 05:11:20;;;;;;;0.08;0.08;;;;;;;9.26;55.85;94453.41;4977541;28;20069;-69
2021/12/01 05:13:46;;;;;;;0.10;0.10;;;;;;;9.79;54.27;94461.03;4973492;28;20034;-70
2021/12/01 05:16:11;;;;;;;0.55;0.22;;;;;;;9.27;56.13;94457.66;4972229;28;20037;-69
2021/12/01 05:18:37;;;;;;;0.20;0.20;;;;;;;9.70;55.21;94447.00;4973761;28;20023;-70
2021/12/01 05:21:03;;;;;;;1.02;0.00;;;;;;;9.86;54.94;94448.06;4972059;28;20038;-70
2021/12/01 05:23:29;;;;;;;1.55;0.20;;;;;;;9.51;55.45;94441.22;4972953;28;20619;-70
2021/12/01 05:25:54;;;;;;;0.10;0.10;;;;;;;9.89;54.85;94436.03;4980315;28;20117;-70
2021/12/01 05:28:20;;;;;;;0.20;0.20;;;;;;;9.97;54.36;94443.19;4973855;28;20416;-71
2021/12/01 05:30:45;;;;;;;0.38;0.20;;;;;;;9.26;56.43;94446.22;4971683;28;20027;-70
2021/12/01 05:33:14;;;;;;;0.13;0.13;;;;;;;9.20;56.60;94447.47;4973095;28;20031;-70
2021/12/01 05:35:42;;;;;;;0.32;0.20;;;;;;;9.46;56.01;94444.81;4971945;28;20026;-70
2021/12/01 05:38:08;;;;;;;0.40;0.22;;;;;;;9.66;56.36;94442.63;4972794;28;20031;-70
2021/12/01 05:40:34;;;;;;;0.22;0.22;;;;;;;9.34;57.56;94442.03;4976238;28;20058;-70
2021/12/01 05:43:00;;;;;;;0.30;0.15;;;;;;;8.95;59.78;94446.34;4972985;28;20069;-70
2021/12/01 05:45:25;;;;;;;0.20;0.20;;;;;;;9.31;59.02;94443.41;4973067;28;20023;-71
2021/12/01 05:47:52;;;;;;;0.30;0.30;;;;;;;9.41;57.97;94444.19;4973221;28;20089;-71
2021/12/01 05:50:18;;;;;;;0.30;0.30;;;;;;;9.12;59.53;94421.72;4971829;28;20389;-70
2021/12/01 05:52:43;;;;;;;3.95;0.38;;;;;;;9.40;58.88;94440.78;4971626;28;20056;-70
2021/12/01 05:55:09;;;;;;;1.45;0.60;;;;;;;9.19;60.27;94445.91;4971452;28;20429;-69
2021/12/01 05:57:35;;;;;;;0.32;0.32;;;;;;;8.82;61.15;94442.75;4985108;28;20481;-71
2021/12/01 06:00:01;;;;;;;0.65;0.50;;;;;;;9.32;60.27;94437.03;4972480;28;20117;-69
2021/12/01 06:02:27;;;;;;;0.40;0.38;;;;;;;8.57;62.50;94435.53;4972568;28;20106;-69
2021/12/01 06:04:52;;;;;;;0.32;0.32;;;;;;;9.53;59.75;94425.78;4972974;28;20613;-71
2021/12/01 06:07:18;;;;;;;1.40;0.60;;;;;;;10.36;58.15;94418.25;4972759;28;20031;-69
2021/12/01 06:09:44;;;;;;;2.08;0.63;;;;;;;10.22;57.89;94412.31;4971722;28;20534;-69
2021/12/01 06:12:12;;;;;;;1.40;0.50;;;;;;;10.29;57.72;94414.53;4972006;28;20073;-71
2021/12/01 06:14:39;;;;;;;2.35;0.50;;;;;;;10.37;57.40;94406.50;4972478;28;20054;-69
2021/12/01 06:17:04;;;;;;;0.45;0.45;;;;;;;10.13;58.18;94408.91;4972529;28;20093;-71
2021/12/01 06:19:30;;;;;;;0.63;0.50;;;;;;;9.47;59.72;94401.28;4970764;28;20034;-69
2021/12/01 06:21:55;;;;;;;1.55;0.68;;;;;;;9.72;58.74;94378.41;4972156;28;20041;-71
2021/12/01 06:24:20;;;;;;;0.47;0.47;;;;;;;9.79;58.08;94381.38;4970459;28;20023;-67
2021/12/01 06:26:46;;;;;;;0.50;0.50;;;;;;;9.95;57.70;94375.53;4974578;28;20030;-67
2021/12/01 06:29:11;;;;;;;0.63;0.63;;;;;;;10.22;57.31;94382.31;4971772;28;20678;-68
2021/12/01 06:31:37;;;;;;;0.70;0.70;;;;;;;10.04;57.70;94371.75;4971903;28;20477;-69
2021/12/01 06:34:02;;;;;;;1.52;0.50;;;;;;;10.06;57.67;94374.09;4972351;28;20023;-70
2021/12/01 06:36:28;;;;;;;0.68;0.60;;;;;;;10.65;56.06;94377.59;4970968;28;20130;-70
2021/12/01 06:38:53;;;;;;;1.25;0.68;;;;;;;11.38;54.48;94377.19;4971716;28;20030;-72
2021/12/01 06:41:19;;;;;;;0.47;0.47;;;;;;;11.77;53.17;94377.75;4975490;28;20014;-68
2021/12/01 06:43:44;;;;;;;0.50;0.50;;;;;;;12.09;52.12;94370.09;4972210;28;20073;-69
2021/12/01 06:46:10;;;;;;;0.80;0.50;;;;;;;12.22;51.74;94368.97;4972435;28;20034;-69
2021/12/01 06:48:35;;;;;;;0.77;0.63;;;;;;;12.54;51.40;94356.66;4972069;28;20026;-71
2021/12/01 06:51:01;;;;;;;1.88;0.68;;;;;;;12.77;50.92;94353.50;4973264;28;20026;-73
2021/12/01 06:53:26;;;;;;;1.67;0.80;;;;;;;12.83;50.37;94344.91;4989398;28;20442;-70
2021/12/01 06:55:53;;;;;;;1.65;0.90;;;;;;;12.97;49.82;94342.66;4975663;28;20053;-70
2021/12/01 06:58:19;;;;;;;0.90;0.90;;;;;;;12.93;49.70;94336.44;4977837;28;20113;-75
2021/12/01 07:00:44;;;;;;;1.15;0.70;;;;;;;12.83;49.65;94334.25;4973641;28;20085;-75
2021/12/01 07:03:09;;;;;;;0.90;0.75;;;;;;;12.18;49.95;94312.88;4974318;28;20023;-71
2021/12/01 07:05:35;;;;;;;1.00;0.85;;;;;;;12.40;50.33;94337.53;4974111;28;20635;-78
2021/12/01 07:08:00;;;;;;;1.63;0.90;;;;;;;12.49;50.25;94327.53;4974929;28;20512;-72
2021/12/01 07:10:26;;;;;;;1.55;1.10;;;;;;;12.42;49.86;94327.31;4976858;28;20046;-78
2021/12/01 07:12:51;;;;;;;2.65;1.23;;;;;;;12.28;50.00;94327.63;4975299;28;20142;-78
2021/12/01 07:15:18;;;;;;;1.08;0.82;;;;;;;12.59;49.82;94336.94;4973442;28;20019;-71
2021/12/01 07:17:43;;;;;;;3.78;1.50;;;;;;;12.43;49.99;94336.84;4974261;28;20027;-73
2021/12/01 07:20:10;;;;;;;1.10;0.82;;;;;;;12.74;49.01;94329.06;4974117;28;20093;-74
2021/12/01 07:22:36;;;;;;;1.00;0.77;;;;;;;12.55;49.16;94328.84;4972782;28;20410;-73
2021/12/01 07:25:02;;;;;;;6.50;0.88;;;;;;;12.76;48.97;94320.69;4975272;28;20026;-74
2021/12/01 07:27:28;;;;;;;0.73;0.55;;;;;;;12.30;49.57;94330.75;4974983;28;20022;-73
2021/12/01 07:29:53;;;;;;;0.98;0.70;;;;;;;12.08;48.92;94344.50;4970581;28;20022;-76
2021/12/01 07:32:19;;;;;;;1.38;0.70;;;;;;;11.37;51.52;94340.25;4971537;28;20102;-73
2021/12/01 07:34:44;;;;;;;0.80;0.50;;;;;;;11.46;51.73;94324.94;4971330;28;20030;-71
2021/12/01 07:37:12;;;;;;;1.48;0.50;;;;;;;12.17;50.15;94331.88;4971268;28;20026;-70
2021/12/01 07:39:37;;;;;;;1.02;0.40;;;;;;;10.90;51.91;94327.97;4970713;28;20081;-71
2021/12/01 07:42:04;;;;;;;0.75;0.63;;;;;;;11.48;50.07;94306.00;4981817;28;20042;-74
2021/12/01 07:44:29;;;;;;;1.10;0.80;;;;;;;12.49;48.62;94298.19;4976979;28;20026;-68
2021/12/01 07:46:55;;;;;;;1.35;0.52;;;;;;;12.96;47.64;94306.41;4969700;28;20027;-69
2021/12/01 07:49:20;;;;;;;1.17;0.45;;;;;;;13.16;47.25;94295.91;4970841;28;20041;-71
2021/12/01 07:51:46;;;;;;;0.70;0.70;;;;;;;12.31;47.26;94289.66;4970382;28;20026;-70
2021/12/01 07:54:11;;;;;;;0.90;0.50;;;;;;;11.94;48.12;94286.22;4970525;28;20030;-70
2021/12/01 07:56:37;;;;;;;1.50;0.50;;;;;;;12.91;46.58;94274.63;4978652;28;20018;-78
2021/12/01 07:59:03;;;;;;;1.70;0.85;;;;;;;12.86;46.30;94282.88;4981880;28;20034;-69
2021/12/01 08:01:28;;;;;;;0.73;0.40;;;;;;;12.46;46.08;94264.97;4970673;28;20019;-70
2021/12/01 08:03:54;;;;;;;0.73;0.60;;;;;;;12.64;46.90;94260.16;4970059;28;20023;-68
2021/12/01 08:06:20;;;;;;;0.40;0.32;;;;;;;11.65;48.38;94273.84;4971424;28;20025;-72
2021/12/01 08:08:45;;;;;;;0.52;0.52;;;;;;;12.49;47.29;94266.19;4972115;28;20033;-70
2021/12/01 08:11:11;;;;;;;0.77;0.68;;;;;;;12.75;46.34;94255.13;4969966;28;20043;-68
2021/12/01 08:13:36;;;;;;;0.77;0.60;;;;;;;12.32;47.45;94261.09;4982253;28;20058;-69
2021/12/01 08:16:02;;;;;;;2.38;0.50;;;;;;;11.34;48.93;94264.47;4970751;28;20043;-70
2021/12/01 08:18:28;;;;;;;0.50;0.50;;;;;;;12.23;47.82;94242.53;4971028;28;20054;-70
2021/12/01 08:20:54;;;;;;;0.52;0.52;;;;;;;11.69;48.02;94267.50;4970789;28;20034;-73
2021/12/01 08:23:19;;;;;;;1.95;0.80;;;;;;;11.45;48.82;94259.47;4969471;28;20034;-73
2021/12/01 08:25:45;;;;;;;2.15;0.90;;;;;;;10.64;50.47;94256.31;4970823;28;20602;-69
2021/12/01 08:28:10;;;;;;;0.55;0.55;;;;;;;10.56;50.65;94256.41;4975326;28;20039;-71
2021/12/01 08:30:36;;;;;;;0.57;0.57;;;;;;;10.18;51.69;94238.66;4970904;28;20034;-73
2021/12/01 08:33:02;;;;;;;0.35;0.35;;;;;;;9.64;53.20;94241.91;4969961;28;20070;-73
2021/12/01 08:35:27;;;;;;;0.88;0.40;;;;;;;10.56;51.23;94232.47;4970666;28;20027;-73
2021/12/01 08:37:55;;;;;;;0.50;0.50;;;;;;;10.35;51.45;94227.94;4970615;28;20058;-73
2021/12/01 08:40:21;;;;;;;0.70;0.50;;;;;;;10.30;51.78;94235.34;4969245;28;20026;-69
2021/12/01 08:42:47;;;;;;;1.50;0.47;;;;;;;10.74;50.61;94247.19;4972429;28;20031;-69
2021/12/01 08:45:12;;;;;;;0.43;0.40;;;;;;;10.41;51.05;94236.50;4970374;28;20029;-69
2021/12/01 08:47:38;;;;;;;0.70;0.70;;;;;;;10.68;50.05;94230.66;4970372;28;20023;-69
2021/12/01 08:50:07;;;;;;;0.60;0.60;;;;;;;10.73;50.85;94224.34;4970040;28;20031;-69
2021/12/01 08:52:32;;;;;;;0.55;0.50;;;;;;;10.30;51.55;94212.19;4970177;28;20031;-71
2021/12/01 08:54:58;;;;;;;0.63;0.60;;;;;;;10.97;50.53;94241.50;4969762;28;20029;-70
2021/12/01 08:57:23;;;;;;;0.40;0.40;;;;;;;11.25;48.99;94241.69;4985630;28;20061;-70
2021/12/01 08:59:50;;;;;;;1.02;0.50;;;;;;;10.16;51.96;94216.94;4974595;28;20073;-69
2021/12/01 09:02:16;;;;;;;0.88;0.50;;;;;;;10.60;50.69;94218.22;4970143;28;20022;-75
2021/12/01 09:04:42;;;;;;;0.68;0.43;;;;;;;11.03;49.57;94222.34;4972103;28;20034;-68
2021/12/01 09:07:08;;;;;;;0.30;0.30;;;;;;;10.34;50.96;94217.66;4989363;28;20034;-68
2021/12/01 09:09:33;;;;;;;0.68;0.63;;;;;;;10.84;49.23;94214.06;4987048;28;20778;-67
2021/12/01 09:11:58;;;;;;;0.60;0.40;;;;;;;11.25;48.72;94221.16;4983978;28;20077;-67
2021/12/01 09:14:25;;;;;;;0.68;0.30;;;;;;;10.53;50.40;94204.66;4973533;28;20047;-77
2021/12/01 09:16:52;;;;;;;0.68;0.47;;;;;;;11.04;48.81;94226.56;4973836;28;20039;-69
2021/12/01 09:19:18;;;;;;;0.40;0.40;;;;;;;11.64;47.66;94205.69;4973413;28;20077;-69
2021/12/01 09:21:43;;;;;;;0.75;0.40;;;;;;;11.52;47.50;94219.00;4973045;28;20424;-68
2021/12/01 09:24:10;;;;;;;0.22;0.22;;;;;;;10.64;49.60;94223.63;4973262;28;20026;-69
2021/12/01 09:26:35;;;;;;;0.30;0.30;;;;;;;10.16;50.52;94216.94;4981536;28;20084;-69
2021/12/01 09:29:02;;;;;;;0.88;0.55;;;;;;;11.33;48.90;94215.00;4975920;28;20027;-69
2021/12/01 09:31:27;;;;;;;0.40;0.40;;;;;;;11.15;48.40;94203.75;4973085;28;20417;-68
2021/12/01 09:33:54;;;;;;;1.38;0.40;;;;;;;11.27;47.19;94173.72;4973157;28;20077;-68
2021/12/01 09:36:20;;;;;;;0.40;0.40;;;;;;;11.00;49.51;94211.56;4973381;28;20040;-68
2021/12/01 09:38:45;;;;;;;0.52;0.52;;;;;;;11.08;48.69;94213.38;4973562;28;20481;-69
2021/12/01 09:41:11;;;;;;;0.30;0.30;;;;;;;12.43;46.70;94198.94;4976173;28;20030;-67
2021/12/01 09:43:38;;;;;;;0.50;0.40;;;;;;;12.78;45.33;94195.72;4976285;28;20031;-71
2021/12/01 09:46:08;;;;;;;1.25;0.40;;;;;;;11.24;47.60;94201.00;4973406;28;20026;-70
2021/12/01 09:48:35;;;;;;;0.25;0.20;;;;;;;12.02;45.84;94181.38;4973268;28;20553;-67
2021/12/01 09:51:01;;;;;;;1.15;0.40;;;;;;;11.67;46.17;94154.44;4971395;28;20058;-68
2021/12/01 09:53:26;;;;;;;0.65;0.40;;;;;;;12.14;45.93;94154.72;4972906;28;20170;-67
2021/12/01 09:55:52;;;;;;;0.73;0.40;;;;;;;11.87;47.01;94142.09;4971280;28;20026;-68
2021/12/01 09:58:23;;;;;;;0.70;0.38;;;;;;;11.30;46.94;94157.06;4971556;28;20026;-71
2021/12/01 10:00:56;;;;;;;0.30;0.30;;;;;;;11.28;47.00;94150.53;4972670;28;20027;-67
2021/12/01 10:03:22;;;;;;;0.40;0.40;;;;;;;11.86;45.99;94141.31;4972518;28;20697;-68
2021/12/01 10:06:11;;;;;;;0.43;0.28;;;;;;;12.37;44.91;94146.97;4972942;28;20027;-68
2021/12/01 10:08:42;;;;;;;0.30;0.30;;;;;;;12.08;45.07;94137.41;4972853;28;20031;-71
2021/12/01 10:11:19;;;;;;;0.55;0.38;;;;;;;12.01;45.43;94121.19;4974813;28;20105;-69
2021/12/01 10:13:50;;;;;;;0.40;0.38;;;;;;;13.70;42.21;94113.69;4972891;28;20031;-70
2021/12/01 10:16:18;;;;;;;0.20;0.20;;;;;;;11.93;45.45;94100.78;4973523;28;20077;-69
2021/12/01 10:18:46;;;;;;;0.30;0.30;;;;;;;13.62;42.07;94109.31;4973282;28;20300;-71
2021/12/01 10:21:18;;;;;;;0.40;0.32;;;;;;;13.70;42.09;94105.66;4973064;28;20030;-68
2021/12/01 10:23:48;;;;;;;0.30;0.30;;;;;;;12.72;43.65;94111.69;4970424;28;20066;-68
2021/12/01 10:26:20;;;;;;;0.82;0.43;;;;;;;13.96;41.61;94100.50;4975912;28;20113;-69
2021/12/01 10:28:48;;;;;;;0.70;0.30;;;;;;;13.51;41.57;94088.47;4982739;28;20034;-69
2021/12/01 10:31:15;;;;;;;0.32;0.28;;;;;;;13.72;41.33;94061.44;4973573;28;20116;-68
2021/12/01 10:33:41;;;;;;;0.98;0.20;;;;;;;13.85;41.00;94070.09;4972272;28;20050;-68
2021/12/01 10:36:09;;;;;;;0.63;0.30;;;;;;;13.52;41.49;94068.66;4972536;28;20034;-68
2021/12/01 10:38:38;;;;;;;0.13;0.13;;;;;;;13.33;41.83;94057.13;4970834;28;20038;-68
2021/12/01 10:41:04;;;;;;;0.13;0.13;;;;;;;13.23;41.75;94055.78;4975037;28;20109;-67
2021/12/01 10:43:39;;;;;;;0.10;0.10;;;;;;;12.65;42.94;94042.16;4975435;28;20096;-68
2021/12/01 10:46:07;;;;;;;0.85;0.15;;;;;;;12.71;43.05;94041.56;4971000;28;20095;-63
2021/12/01 10:48:34;;;;;;;0.25;0.20;;;;;;;12.98;42.31;94029.22;4972138;28;20033;-66
2021/12/01 10:50:59;;;;;;;0.32;0.20;;;;;;;12.83;43.00;94030.00;4971953;28;20061;-67
2021/12/01 10:53:26;;;;;;;0.40;0.28;;;;;;;13.24;41.97;94014.59;4971733;28;20113;-67
2021/12/01 10:56:01;;;;;;;0.50;0.40;;;;;;;14.35;40.03;94006.91;4974462;28;20034;-67
2021/12/01 10:58:44;;;;;;;0.30;0.30;;;;;;;13.31;42.42;93989.94;4975427;28;20030;-67
2021/12/01 11:01:25;;;;;;;0.40;0.20;;;;;;;13.47;41.65;93985.34;4971521;28;20488;-67
2021/12/01 11:03:52;;;;;;;0.20;0.20;;;;;;;13.04;42.67;93978.25;4971974;28;20107;-67
2021/12/01 11:06:20;;;;;;;0.85;0.35;;;;;;;13.41;42.53;93978.69;4971842;28;20030;-67
2021/12/01 11:08:55;;;;;;;0.30;0.30;;;;;;;13.57;42.68;93968.00;4971908;28;20664;-67
2021/12/01 11:11:22;;;;;;;0.20;0.20;;;;;;;13.55;42.06;93964.88;4970610;28;20022;-68
2021/12/01 11:13:48;;;;;;;0.32;0.20;;;;;;;13.04;42.81;93954.22;4975049;28;20429;-67
2021/12/01 11:16:15;;;;;;;0.30;0.20;;;;;;;12.88;43.54;93955.03;4971494;28;20023;-66
2021/12/01 11:18:43;;;;;;;0.57;0.38;;;;;;;13.06;43.29;93955.44;4971523;28;20534;-67
2021/12/01 11:21:21;;;;;;;0.45;0.20;;;;;;;12.35;45.02;93959.88;4971126;28;20027;-67
2021/12/01 11:23:52;;;;;;;1.23;0.30;;;;;;;12.36;45.13;93936.66;4971444;28;20057;-66
2021/12/01 11:26:21;;;;;;;0.47;0.30;;;;;;;12.37;45.68;93946.19;4970902;28;20042;-67
2021/12/01 11:28:52;;;;;;;1.40;0.30;;;;;;;13.20;44.09;93926.34;4973312;28;20174;-64
2021/12/01 11:31:21;;;;;;;0.50;0.40;;;;;;;13.84;42.45;93928.81;4970993;28;20126;-71
2021/12/01 11:33:48;;;;;;;1.33;0.50;;;;;;;13.83;42.71;93916.56;4971406;28;20531;-69
2021/12/01 11:36:18;;;;;;;1.15;0.30;;;;;;;13.43;42.96;93907.03;4971537;28;20057;-75
2021/12/01 11:38:49;;;;;;;1.55;0.30;;;;;;;12.96;44.10;93914.03;4970767;28;20528;-74
2021/12/01 11:41:14;;;;;;;0.30;0.20;;;;;;;12.96;44.85;93898.03;4970378;28;20291;-68